sensor_id;sensor_type;location;lat;lon;timestamp;pressure;altitude;pressure_sealevel;temperature;humidity
6423;BME280;3244;42.708;23.288;2022-08-01T00:24:14;109038.91;;;23.25;nan
6423;BME280;3244;42.708;23.288;2022-08-01T01:31:02;94997.59;;;21.18;nan
6423;BME280;3244;42.708;23.288;2022-08-01T01:45:50;94994.78;;;21.32;nan
6423;BME280;3244;42.708;23.288;2022-08-01T03:17:07;94937.88;;;20.30;nan
6423;BME280;3244;42.708;23.288;2022-08-01T04:33:29;94999.41;;;22.37;nan
6423;BME280;3244;42.708;23.288;2022-08-01T05:15:19;94933.50;;;25.07;nan
6423;BME280;3244;42.708;23.288;2022-08-01T05:20:13;94962.81;;;28.17;nan
6423;BME280;3244;42.708;23.288;2022-08-01T05:22:39;94968.06;;;29.14;nan
6423;BME280;3244;42.708;23.288;2022-08-01T05:25:06;94965.63;;;30.07;nan
6423;BME280;3244;42.708;23.288;2022-08-01T05:27:33;94955.72;;;31.67;nan
6423;BME280;3244;42.708;23.288;2022-08-01T05:37:26;94939.56;;;38.40;nan
6423;BME280;3244;42.708;23.288;2022-08-01T05:39:53;94942.75;;;39.02;nan
6423;BME280;3244;42.708;23.288;2022-08-01T05:42:20;94945.91;;;39.86;nan
6423;BME280;3244;42.708;23.288;2022-08-01T05:44:46;94937.81;;;40.78;nan
6423;BME280;3244;42.708;23.288;2022-08-01T05:47:15;94933.31;;;41.34;nan
6423;BME280;3244;42.708;23.288;2022-08-01T05:49:43;94937.38;;;40.86;nan
6423;BME280;3244;42.708;23.288;2022-08-01T05:52:10;94931.19;;;40.07;nan
6423;BME280;3244;42.708;23.288;2022-08-01T05:54:37;94930.81;;;40.43;nan
6423;BME280;3244;42.708;23.288;2022-08-01T05:57:03;94936.03;;;40.38;nan
6423;BME280;3244;42.708;23.288;2022-08-01T05:59:31;94933.09;;;40.68;nan
6423;BME280;3244;42.708;23.288;2022-08-01T06:01:58;94935.72;;;40.97;nan
6423;BME280;3244;42.708;23.288;2022-08-01T06:04:25;94938.69;;;41.00;nan
6423;BME280;3244;42.708;23.288;2022-08-01T06:06:53;94943.31;;;40.60;nan
6423;BME280;3244;42.708;23.288;2022-08-01T06:09:20;94947.75;;;39.86;nan
6423;BME280;3244;42.708;23.288;2022-08-01T06:11:46;94940.41;;;39.64;nan
6423;BME280;3244;42.708;23.288;2022-08-01T06:14:13;94942.50;;;39.62;nan
6423;BME280;3244;42.708;23.288;2022-08-01T06:16:40;94936.97;;;39.05;nan
6423;BME280;3244;42.708;23.288;2022-08-01T06:19:06;94936.09;;;38.70;nan
6423;BME280;3244;42.708;23.288;2022-08-01T06:21:33;94936.09;;;38.28;nan
6423;BME280;3244;42.708;23.288;2022-08-01T06:24:02;94940.03;;;38.07;nan
6423;BME280;3244;42.708;23.288;2022-08-01T06:31:23;94942.63;;;35.90;nan
6423;BME280;3244;42.708;23.288;2022-08-01T06:33:50;94933.75;;;35.65;nan
6423;BME280;3244;42.708;23.288;2022-08-01T06:36:16;94941.25;;;36.19;nan
6423;BME280;3244;42.708;23.288;2022-08-01T06:38:43;94927.91;;;36.77;nan
6423;BME280;3244;42.708;23.288;2022-08-01T06:41:11;94938.91;;;36.74;nan
6423;BME280;3244;42.708;23.288;2022-08-01T06:43:38;94925.41;;;36.82;nan
6423;BME280;3244;42.708;23.288;2022-08-01T06:46:05;94932.94;;;36.54;nan
6423;BME280;3244;42.708;23.288;2022-08-01T06:48:31;94938.34;;;34.98;nan
6423;BME280;3244;42.708;23.288;2022-08-01T06:50:58;94921.28;;;34.61;nan
6423;BME280;3244;42.708;23.288;2022-08-01T06:53:35;94927.75;;;34.65;nan
6423;BME280;3244;42.708;23.288;2022-08-01T06:56:02;94924.13;;;34.73;nan
6423;BME280;3244;42.708;23.288;2022-08-01T06:58:31;94924.94;;;33.79;nan
6423;BME280;3244;42.708;23.288;2022-08-01T07:00:59;94914.69;;;33.22;nan
6423;BME280;3244;42.708;23.288;2022-08-01T07:03:26;94915.38;;;32.54;nan
6423;BME280;3244;42.708;23.288;2022-08-01T07:08:20;94917.09;;;31.83;nan
6423;BME280;3244;42.708;23.288;2022-08-01T07:10:47;94914.50;;;31.38;nan
6423;BME280;3244;42.708;23.288;2022-08-01T07:13:14;94925.19;;;30.24;nan
6423;BME280;3244;42.708;23.288;2022-08-01T07:15:47;94919.22;;;28.82;nan
6423;BME280;3244;42.708;23.288;2022-08-01T07:18:14;94926.09;;;28.42;nan
6423;BME280;3244;42.708;23.288;2022-08-01T07:28:00;94938.16;;;28.27;nan
6423;BME280;3244;42.708;23.288;2022-08-01T07:30:26;94930.59;;;28.00;nan
6423;BME280;3244;42.708;23.288;2022-08-01T07:35:21;94925.09;;;27.19;nan
6423;BME280;3244;42.708;23.288;2022-08-01T07:37:48;94918.97;;;27.36;nan
6423;BME280;3244;42.708;23.288;2022-08-01T07:50:06;94894.91;;;26.90;nan
6423;BME280;3244;42.708;23.288;2022-08-01T07:54:59;94934.88;;;27.25;nan
6423;BME280;3244;42.708;23.288;2022-08-01T07:57:26;94925.00;;;27.70;nan
6423;BME280;3244;42.708;23.288;2022-08-01T07:59:53;94931.50;;;27.74;nan
6423;BME280;3244;42.708;23.288;2022-08-01T08:04:46;94937.94;;;27.46;nan
6423;BME280;3244;42.708;23.288;2022-08-01T08:07:15;94935.44;;;27.70;nan
6423;BME280;3244;42.708;23.288;2022-08-01T08:09:42;94927.19;;;28.07;nan
6423;BME280;3244;42.708;23.288;2022-08-01T08:14:35;94927.06;;;27.59;nan
6423;BME280;3244;42.708;23.288;2022-08-01T08:17:03;94920.13;;;27.84;nan
6423;BME280;3244;42.708;23.288;2022-08-01T08:19:30;94921.44;;;27.88;nan
6423;BME280;3244;42.708;23.288;2022-08-01T08:21:58;94930.13;;;27.54;nan
6423;BME280;3244;42.708;23.288;2022-08-01T08:24:27;94918.31;;;27.34;nan
6423;BME280;3244;42.708;23.288;2022-08-01T08:26:55;94925.28;;;26.99;nan
6423;BME280;3244;42.708;23.288;2022-08-01T08:31:51;94920.53;;;26.69;nan
6423;BME280;3244;42.708;23.288;2022-08-01T08:39:11;94897.69;;;26.63;nan
6423;BME280;3244;42.708;23.288;2022-08-01T08:46:33;94923.41;;;26.40;nan
6423;BME280;3244;42.708;23.288;2022-08-01T08:53:57;94917.56;;;26.28;nan
6423;BME280;3244;42.708;23.288;2022-08-01T08:56:25;94921.25;;;26.35;nan
6423;BME280;3244;42.708;23.288;2022-08-01T09:03:50;94919.44;;;26.54;nan
6423;BME280;3244;42.708;23.288;2022-08-01T09:16:05;94902.91;;;26.63;nan
6423;BME280;3244;42.708;23.288;2022-08-01T09:23:35;94900.97;;;26.65;nan
6423;BME280;3244;42.708;23.288;2022-08-01T09:41:05;94892.25;;;26.82;nan
6423;BME280;3244;42.708;23.288;2022-08-01T09:46:05;94892.38;;;26.98;nan
6423;BME280;3244;42.708;23.288;2022-08-01T09:56:09;94907.25;;;27.40;nan
6423;BME280;3244;42.708;23.288;2022-08-01T09:58:52;94888.88;;;27.58;nan
6423;BME280;3244;42.708;23.288;2022-08-01T10:01:20;94890.09;;;27.71;nan
6423;BME280;3244;42.708;23.288;2022-08-01T10:04:03;94892.97;;;27.60;nan
6423;BME280;3244;42.708;23.288;2022-08-01T10:08:57;94905.28;;;27.42;nan
6423;BME280;3244;42.708;23.288;2022-08-01T10:11:24;94892.25;;;27.50;nan
6423;BME280;3244;42.708;23.288;2022-08-01T10:13:51;94898.28;;;27.42;nan
6423;BME280;3244;42.708;23.288;2022-08-01T10:16:19;94891.94;;;27.45;nan
6423;BME280;3244;42.708;23.288;2022-08-01T10:21:14;94888.63;;;27.85;nan
6423;BME280;3244;42.708;23.288;2022-08-01T10:26:10;94884.84;;;27.71;nan
6423;BME280;3244;42.708;23.288;2022-08-01T10:28:38;94878.16;;;27.77;nan
6423;BME280;3244;42.708;23.288;2022-08-01T10:31:06;94869.97;;;27.72;nan
6423;BME280;3244;42.708;23.288;2022-08-01T10:33:33;94869.81;;;27.73;nan
6423;BME280;3244;42.708;23.288;2022-08-01T10:36:02;94876.19;;;27.79;nan
6423;BME280;3244;42.708;23.288;2022-08-01T10:38:30;94871.69;;;27.39;nan
6423;BME280;3244;42.708;23.288;2022-08-01T10:40:59;94872.91;;;27.19;nan
6423;BME280;3244;42.708;23.288;2022-08-01T10:43:28;94874.41;;;27.29;nan
6423;BME280;3244;42.708;23.288;2022-08-01T10:45:55;94858.94;;;27.36;nan
6423;BME280;3244;42.708;23.288;2022-08-01T10:48:28;94866.94;;;27.34;nan
6423;BME280;3244;42.708;23.288;2022-08-01T10:50:58;94865.81;;;27.37;nan
6423;BME280;3244;42.708;23.288;2022-08-01T10:53:26;94857.34;;;27.51;nan
6423;BME280;3244;42.708;23.288;2022-08-01T10:55:59;94860.31;;;27.56;nan
6423;BME280;3244;42.708;23.288;2022-08-01T11:01:13;94841.59;;;27.61;nan
6423;BME280;3244;42.708;23.288;2022-08-01T11:03:41;94856.13;;;27.63;nan
6423;BME280;3244;42.708;23.288;2022-08-01T11:06:15;94839.94;;;27.60;nan
6423;BME280;3244;42.708;23.288;2022-08-01T11:08:42;94853.34;;;27.65;nan
6423;BME280;3244;42.708;23.288;2022-08-01T11:11:18;94849.09;;;27.72;nan
6423;BME280;3244;42.708;23.288;2022-08-01T11:14:01;94855.81;;;27.66;nan
6423;BME280;3244;42.708;23.288;2022-08-01T11:16:33;94844.34;;;27.59;nan
6423;BME280;3244;42.708;23.288;2022-08-01T11:19:00;94849.75;;;27.66;nan
6423;BME280;3244;42.708;23.288;2022-08-01T11:22:00;94852.22;;;27.84;nan
6423;BME280;3244;42.708;23.288;2022-08-01T11:24:57;94853.75;;;27.52;nan
6423;BME280;3244;42.708;23.288;2022-08-01T11:27:27;94864.34;;;27.51;nan
6423;BME280;3244;42.708;23.288;2022-08-01T11:30:22;94847.22;;;27.48;nan
6423;BME280;3244;42.708;23.288;2022-08-01T11:37:46;94842.59;;;27.68;nan
6423;BME280;3244;42.708;23.288;2022-08-01T11:47:45;94849.25;;;27.62;nan
6423;BME280;3244;42.708;23.288;2022-08-01T11:50:30;94830.00;;;27.63;nan
6423;BME280;3244;42.708;23.288;2022-08-01T11:55:26;94828.94;;;27.40;nan
6423;BME280;3244;42.708;23.288;2022-08-01T11:58:00;94827.13;;;27.32;nan
6423;BME280;3244;42.708;23.288;2022-08-01T12:00:27;94823.19;;;27.20;nan
6423;BME280;3244;42.708;23.288;2022-08-01T12:02:59;94793.03;;;27.34;nan
6423;BME280;3244;42.708;23.288;2022-08-01T12:05:27;94840.03;;;27.34;nan
6423;BME280;3244;42.708;23.288;2022-08-01T12:10:23;94828.94;;;27.40;nan
6423;BME280;3244;42.708;23.288;2022-08-01T12:12:52;94835.00;;;27.40;nan
6423;BME280;3244;42.708;23.288;2022-08-01T12:15:22;94816.56;;;27.42;nan
6423;BME280;3244;42.708;23.288;2022-08-01T12:17:54;94840.44;;;27.63;nan
6423;BME280;3244;42.708;23.288;2022-08-01T12:25:19;94833.22;;;27.57;nan
6423;BME280;3244;42.708;23.288;2022-08-01T12:27:47;94827.66;;;27.52;nan
6423;BME280;3244;42.708;23.288;2022-08-01T12:30:15;94824.38;;;27.42;nan
6423;BME280;3244;42.708;23.288;2022-08-01T12:32:46;94832.88;;;27.44;nan
6423;BME280;3244;42.708;23.288;2022-08-01T12:37:41;94836.53;;;27.67;nan
6423;BME280;3244;42.708;23.288;2022-08-01T12:40:11;94832.66;;;27.88;nan
6423;BME280;3244;42.708;23.288;2022-08-01T12:42:38;94832.81;;;27.94;nan
6423;BME280;3244;42.708;23.288;2022-08-01T12:47:35;94822.84;;;28.14;nan
6423;BME280;3244;42.708;23.288;2022-08-01T12:52:32;94829.53;;;28.08;nan
6423;BME280;3244;42.708;23.288;2022-08-01T12:55:13;94818.28;;;28.16;nan
6423;BME280;3244;42.708;23.288;2022-08-01T12:57:42;94818.28;;;28.24;nan
6423;BME280;3244;42.708;23.288;2022-08-01T13:00:15;94800.47;;;28.36;nan
6423;BME280;3244;42.708;23.288;2022-08-01T13:02:43;94805.84;;;28.51;nan
6423;BME280;3244;42.708;23.288;2022-08-01T13:05:12;94818.91;;;28.51;nan
6423;BME280;3244;42.708;23.288;2022-08-01T13:07:45;94816.13;;;28.52;nan
6423;BME280;3244;42.708;23.288;2022-08-01T13:10:14;94813.66;;;28.67;nan
6423;BME280;3244;42.708;23.288;2022-08-01T13:12:51;94818.22;;;28.65;nan
6423;BME280;3244;42.708;23.288;2022-08-01T13:15:23;94804.81;;;28.68;nan
6423;BME280;3244;42.708;23.288;2022-08-01T13:17:51;94797.63;;;28.70;nan
6423;BME280;3244;42.708;23.288;2022-08-01T13:20:27;94812.69;;;28.60;nan
6423;BME280;3244;42.708;23.288;2022-08-01T13:22:55;94814.16;;;28.54;nan
6423;BME280;3244;42.708;23.288;2022-08-01T13:25:22;94798.63;;;28.53;nan
6423;BME280;3244;42.708;23.288;2022-08-01T13:27:49;94783.28;;;28.58;nan
6423;BME280;3244;42.708;23.288;2022-08-01T13:30:17;94800.31;;;28.37;nan
6423;BME280;3244;42.708;23.288;2022-08-01T13:32:57;94794.44;;;28.35;nan
6423;BME280;3244;42.708;23.288;2022-08-01T13:37:52;94797.81;;;28.68;nan
6423;BME280;3244;42.708;23.288;2022-08-01T13:42:49;94789.84;;;28.46;nan
6423;BME280;3244;42.708;23.288;2022-08-01T13:45:16;94785.28;;;28.39;nan
6423;BME280;3244;42.708;23.288;2022-08-01T13:47:43;94787.91;;;28.31;nan
6423;BME280;3244;42.708;23.288;2022-08-01T13:50:10;94784.31;;;28.16;nan
6423;BME280;3244;42.708;23.288;2022-08-01T13:55:05;94794.47;;;27.95;nan
6423;BME280;3244;42.708;23.288;2022-08-01T13:57:32;94798.69;;;27.96;nan
6423;BME280;3244;42.708;23.288;2022-08-01T13:59:58;94785.63;;;28.04;nan
6423;BME280;3244;42.708;23.288;2022-08-01T14:02:26;94789.38;;;28.01;nan
6423;BME280;3244;42.708;23.288;2022-08-01T14:04:53;94775.66;;;28.07;nan
6423;BME280;3244;42.708;23.288;2022-08-01T14:07:21;94789.53;;;28.00;nan
6423;BME280;3244;42.708;23.288;2022-08-01T14:09:49;94784.00;;;27.70;nan
6423;BME280;3244;42.708;23.288;2022-08-01T14:12:16;94774.53;;;27.77;nan
6423;BME280;3244;42.708;23.288;2022-08-01T14:14:43;94770.44;;;27.99;nan
6423;BME280;3244;42.708;23.288;2022-08-01T14:17:09;94789.22;;;28.03;nan
6423;BME280;3244;42.708;23.288;2022-08-01T14:19:36;94777.63;;;28.05;nan
6423;BME280;3244;42.708;23.288;2022-08-01T14:22:03;94777.44;;;27.99;nan
6423;BME280;3244;42.708;23.288;2022-08-01T14:26:58;94771.75;;;27.95;nan
6423;BME280;3244;42.708;23.288;2022-08-01T14:29:24;94785.63;;;27.88;nan
6423;BME280;3244;42.708;23.288;2022-08-01T14:31:51;94781.25;;;27.96;nan
6423;BME280;3244;42.708;23.288;2022-08-01T14:36:44;94775.50;;;28.17;nan
6423;BME280;3244;42.708;23.288;2022-08-01T14:39:11;94776.16;;;28.27;nan
6423;BME280;3244;42.708;23.288;2022-08-01T14:41:39;94784.97;;;28.18;nan
6423;BME280;3244;42.708;23.288;2022-08-01T14:44:07;94788.72;;;28.16;nan
6423;BME280;3244;42.708;23.288;2022-08-01T14:46:34;94779.41;;;28.29;nan
6423;BME280;3244;42.708;23.288;2022-08-01T14:49:01;94789.22;;;28.35;nan
6423;BME280;3244;42.708;23.288;2022-08-01T14:51:27;94783.97;;;28.35;nan
6423;BME280;3244;42.708;23.288;2022-08-01T14:53:58;94784.97;;;28.42;nan
6423;BME280;3244;42.708;23.288;2022-08-01T14:56:25;94785.78;;;28.35;nan
6423;BME280;3244;42.708;23.288;2022-08-01T14:58:52;94796.88;;;28.37;nan
6423;BME280;3244;42.708;23.288;2022-08-01T15:01:20;94787.41;;;28.36;nan
6423;BME280;3244;42.708;23.288;2022-08-01T15:03:47;94787.09;;;28.31;nan
6423;BME280;3244;42.708;23.288;2022-08-01T15:06:16;94809.75;;;28.55;nan
6423;BME280;3244;42.708;23.288;2022-08-01T15:08:43;94790.41;;;28.72;nan
6423;BME280;3244;42.708;23.288;2022-08-01T15:11:10;94793.41;;;28.61;nan
6423;BME280;3244;42.708;23.288;2022-08-01T15:13:37;94792.66;;;28.28;nan
6423;BME280;3244;42.708;23.288;2022-08-01T15:16:03;94798.69;;;28.12;nan
6423;BME280;3244;42.708;23.288;2022-08-01T15:18:32;94796.72;;;28.14;nan
6423;BME280;3244;42.708;23.288;2022-08-01T15:20:58;94789.88;;;28.05;nan
6423;BME280;3244;42.708;23.288;2022-08-01T15:23:25;94791.03;;;27.94;nan
6423;BME280;3244;42.708;23.288;2022-08-01T15:25:52;94795.59;;;27.68;nan
6423;BME280;3244;42.708;23.288;2022-08-01T15:28:19;94796.38;;;27.60;nan
6423;BME280;3244;42.708;23.288;2022-08-01T15:30:46;94782.94;;;27.47;nan
6423;BME280;3244;42.708;23.288;2022-08-01T15:33:12;94792.72;;;27.37;nan
6423;BME280;3244;42.708;23.288;2022-08-01T15:35:40;94796.44;;;27.26;nan
6423;BME280;3244;42.708;23.288;2022-08-01T15:40:34;94792.69;;;27.21;nan
6423;BME280;3244;42.708;23.288;2022-08-01T15:52:49;94790.84;;;27.63;nan
6423;BME280;3244;42.708;23.288;2022-08-01T15:55:16;94794.75;;;27.75;nan
6423;BME280;3244;42.708;23.288;2022-08-01T15:57:42;94794.44;;;27.70;nan
6423;BME280;3244;42.708;23.288;2022-08-01T16:00:10;94786.91;;;27.75;nan
6423;BME280;3244;42.708;23.288;2022-08-01T16:02:37;94779.09;;;27.84;nan
6423;BME280;3244;42.708;23.288;2022-08-01T16:07:31;94791.31;;;27.59;nan
6423;BME280;3244;42.708;23.288;2022-08-01T16:09:59;94786.88;;;27.43;nan
6423;BME280;3244;42.708;23.288;2022-08-01T16:12:26;94788.97;;;27.31;nan
6423;BME280;3244;42.708;23.288;2022-08-01T16:14:53;94792.69;;;27.21;nan
6423;BME280;3244;42.708;23.288;2022-08-01T16:17:19;94798.03;;;27.11;nan
6423;BME280;3244;42.708;23.288;2022-08-01T16:19:46;94799.19;;;27.08;nan
6423;BME280;3244;42.708;23.288;2022-08-01T16:22:15;94795.28;;;27.13;nan
6423;BME280;3244;42.708;23.288;2022-08-01T16:29:36;94800.50;;;27.13;nan
6423;BME280;3244;42.708;23.288;2022-08-01T16:34:30;94805.66;;;26.96;nan
6423;BME280;3244;42.708;23.288;2022-08-01T16:36:57;94803.06;;;27.04;nan
6423;BME280;3244;42.708;23.288;2022-08-01T16:41:51;94807.31;;;26.97;nan
6423;BME280;3244;42.708;23.288;2022-08-01T16:44:19;94810.16;;;26.86;nan
6423;BME280;3244;42.708;23.288;2022-08-01T16:46:46;94813.53;;;26.78;nan
6423;BME280;3244;42.708;23.288;2022-08-01T16:49:13;94802.75;;;26.73;nan
6423;BME280;3244;42.708;23.288;2022-08-01T16:51:39;94809.94;;;26.80;nan
6423;BME280;3244;42.708;23.288;2022-08-01T16:54:07;94819.72;;;26.77;nan
6423;BME280;3244;42.708;23.288;2022-08-01T16:56:34;94815.28;;;26.70;nan
6423;BME280;3244;42.708;23.288;2022-08-01T17:01:29;94824.69;;;26.63;nan
6423;BME280;3244;42.708;23.288;2022-08-01T17:03:57;94826.94;;;26.58;nan
6423;BME280;3244;42.708;23.288;2022-08-01T17:06:25;94820.09;;;26.57;nan
6423;BME280;3244;42.708;23.288;2022-08-01T17:13:45;94830.88;;;26.62;nan
6423;BME280;3244;42.708;23.288;2022-08-01T17:18:39;94823.97;;;26.53;nan
6423;BME280;3244;42.708;23.288;2022-08-01T17:21:06;94833.88;;;26.49;nan
6423;BME280;3244;42.708;23.288;2022-08-01T17:26:00;94834.91;;;26.30;nan
6423;BME280;3244;42.708;23.288;2022-08-01T17:28:26;94837.94;;;26.26;nan
6423;BME280;3244;42.708;23.288;2022-08-01T17:33:20;94838.88;;;26.17;nan
6423;BME280;3244;42.708;23.288;2022-08-01T17:35:48;94818.41;;;26.04;nan
6423;BME280;3244;42.708;23.288;2022-08-01T17:38:15;94851.75;;;25.83;nan
6423;BME280;3244;42.708;23.288;2022-08-01T17:55:25;94870.66;;;25.85;nan
6423;BME280;3244;42.708;23.288;2022-08-01T18:07:39;94888.88;;;25.67;nan
6423;BME280;3244;42.708;23.288;2022-08-01T18:12:34;94901.22;;;25.55;nan
6423;BME280;3244;42.708;23.288;2022-08-01T18:27:17;94932.00;;;25.42;nan
6423;BME280;3244;42.708;23.288;2022-08-01T18:32:10;94927.63;;;25.33;nan
6423;BME280;3244;42.708;23.288;2022-08-01T18:54:14;94969.06;;;25.07;nan
6423;BME280;3244;42.708;23.288;2022-08-01T19:08:57;94987.06;;;25.28;nan
6423;BME280;3244;42.708;23.288;2022-08-01T19:13:52;94982.53;;;25.39;nan
6423;BME280;3244;42.708;23.288;2022-08-01T19:16:19;94981.31;;;25.34;nan
6423;BME280;3244;42.708;23.288;2022-08-01T19:21:14;95007.84;;;25.47;nan
6423;BME280;3244;42.708;23.288;2022-08-01T19:28:56;95004.91;;;25.23;nan
6423;BME280;3244;42.708;23.288;2022-08-01T19:31:25;95009.03;;;25.16;nan
6423;BME280;3244;42.708;23.288;2022-08-01T19:46:11;95008.75;;;25.19;nan
6423;BME280;3244;42.708;23.288;2022-08-01T19:48:38;95008.47;;;25.12;nan
6423;BME280;3244;42.708;23.288;2022-08-01T19:53:41;95007.66;;;25.12;nan
6423;BME280;3244;42.708;23.288;2022-08-01T20:15:50;95006.03;;;24.91;nan
6423;BME280;3244;42.708;23.288;2022-08-01T20:37:55;95021.66;;;24.62;nan
